Time;durP1;ratioP1;P1;durP2;ratioP2;P2;SDS_P1;SDS_P2;PMS_P1;PMS_P2;Temp;Humidity;BMP_temperature;BMP_pressure;BME280_temperature;BME280_humidity;BME280_pressure;Samples;Min_cycle;Max_cycle;Signal;HPM_P1;HPM_P2
2021/01/04 00:01:41;;;;;;;4.68;3.53;;;;;;;22.74;42.17;94918.41;5032535;28;20073;-75
2021/01/04 00:04:21;;;;;;;4.25;3.25;;;;;;;22.72;42.32;94920.91;5032383;28;20614;-75
2021/01/04 00:07:28;;;;;;;4.38;3.53;;;;;;;22.70;42.52;94906.31;5031953;28;20086;-75
2021/01/04 00:10:09;;;;;;;4.22;3.50;;;;;;;22.60;42.49;94902.41;5031375;28;20044;-75
2021/01/04 00:12:43;;;;;;;5.03;3.30;;;;;;;22.67;42.63;94918.22;5030513;28;20552;-75
2021/01/04 00:15:30;;;;;;;5.10;3.45;;;;;;;22.65;42.31;94916.00;5029970;28;20041;-75
2021/01/04 00:18:09;;;;;;;4.72;3.55;;;;;;;22.64;42.26;94913.78;5031109;28;20128;-75
2021/01/04 00:20:37;;;;;;;4.63;3.50;;;;;;;22.63;42.34;94913.03;5026556;28;20427;-75
2021/01/04 00:23:12;;;;;;;5.22;3.90;;;;;;;22.62;42.49;94917.00;5024818;28;20037;-75
2021/01/04 00:25:37;;;;;;;5.35;3.42;;;;;;;22.61;42.53;94909.34;5011704;28;20025;-75
2021/01/04 00:28:05;;;;;;;4.45;3.20;;;;;;;22.60;42.52;94891.53;5011910;28;20026;-75
2021/01/04 00:30:31;;;;;;;4.65;3.55;;;;;;;22.59;42.56;94892.78;5027064;28;20039;-75
2021/01/04 00:33:02;;;;;;;4.43;3.10;;;;;;;22.56;42.41;94896.53;5012463;28;20033;-76
2021/01/04 00:35:27;;;;;;;4.43;3.22;;;;;;;22.55;42.57;94900.47;5011469;28;20030;-75
2021/01/04 00:38:08;;;;;;;4.20;3.40;;;;;;;22.52;42.67;94890.59;5010536;28;20044;-75
2021/01/04 00:40:33;;;;;;;;;;;;;;;22.54;42.68;94888.09;4996142;28;20025;-75
2021/01/04 00:42:58;;;;;;;4.50;3.35;;;;;;;22.50;42.52;94882.94;5011286;28;20669;-76
2021/01/04 00:45:28;;;;;;;4.75;3.30;;;;;;;22.50;42.57;94887.66;4994486;28;20037;-75
2021/01/04 00:47:53;;;;;;;5.25;3.35;;;;;;;22.48;42.47;94879.25;5011933;28;20505;-75
2021/01/04 00:50:43;;;;;;;5.43;3.85;;;;;;;22.47;42.70;94877.78;5011321;28;20036;-75
2021/01/04 00:53:15;;;;;;;5.45;3.75;;;;;;;22.44;42.70;94879.53;5011524;28;20025;-75
2021/01/04 00:55:58;;;;;;;4.18;3.38;;;;;;;22.31;42.66;94859.59;4994437;28;20092;-75
2021/01/04 00:58:51;;;;;;;4.78;3.60;;;;;;;22.44;42.77;94873.34;5001021;28;20026;-75
2021/01/04 01:01:26;;;;;;;4.53;3.53;;;;;;;22.42;42.45;94875.84;5010317;28;20025;-75
2021/01/04 01:04:24;;;;;;;5.13;3.50;;;;;;;22.41;42.59;94879.81;5010154;28;20113;-74
2021/01/04 01:07:02;;;;;;;4.53;3.03;;;;;;;22.39;42.62;94876.88;5009242;28;20108;-75
2021/01/04 01:09:30;;;;;;;4.38;3.17;;;;;;;22.35;42.39;94873.69;5010280;28;20026;-75
2021/01/04 01:12:28;;;;;;;4.18;3.08;;;;;;;22.39;42.54;94873.41;5009043;28;20499;-75
2021/01/04 01:15:21;;;;;;;4.93;3.45;;;;;;;22.38;42.50;94869.22;5009508;28;20088;-76
2021/01/04 01:17:59;;;;;;;4.72;3.10;;;;;;;22.37;42.66;94863.00;5010261;28;20057;-75
2021/01/04 01:20:24;;;;;;;4.50;3.30;;;;;;;22.11;42.43;94830.03;5009989;28;20396;-76
2021/01/04 01:22:50;;;;;;;4.60;3.47;;;;;;;22.19;42.90;94841.84;5025139;28;20119;-75
2021/01/04 01:25:17;;;;;;;4.22;3.20;;;;;;;22.34;42.63;94852.41;5016939;28;20037;-75
2021/01/04 01:28:03;;;;;;;4.80;3.30;;;;;;;22.32;42.86;94855.63;5010184;28;20037;-75
2021/01/04 01:30:33;;;;;;;4.78;3.33;;;;;;;22.31;42.79;94854.16;5009849;28;20406;-75
2021/01/04 01:33:24;;;;;;;4.60;3.50;;;;;;;22.30;42.93;94858.13;5009773;28;20033;-76
2021/01/04 01:36:30;;;;;;;4.65;3.30;;;;;;;22.28;42.65;94860.59;5008553;28;20334;-75
2021/01/04 01:39:27;;;;;;;4.80;3.50;;;;;;;22.28;42.79;94868.78;5007978;28;20034;-75
2021/01/04 01:42:15;;;;;;;5.05;3.50;;;;;;;22.27;42.67;94848.25;5008782;28;20091;-76
2021/01/04 01:45:03;;;;;;;4.68;3.47;;;;;;;22.25;42.77;94845.28;5009756;28;20037;-75
2021/01/04 01:47:50;;;;;;;4.75;3.47;;;;;;;22.25;42.94;94850.72;5009541;28;20024;-75
2021/01/04 01:50:22;;;;;;;4.68;3.50;;;;;;;21.97;42.70;94819.50;5010093;28;20034;-75
2021/01/04 01:52:53;;;;;;;4.95;3.75;;;;;;;22.24;43.02;94852.00;4992472;28;20030;-75
2021/01/04 01:55:24;;;;;;;4.22;3.17;;;;;;;22.23;42.87;94858.66;5009611;28;20407;-75
2021/01/04 01:58:06;;;;;;;4.95;3.55;;;;;;;22.22;42.62;94868.06;5008221;28;20467;-75
2021/01/04 02:00:39;;;;;;;5.10;3.55;;;;;;;22.21;42.93;94877.50;5008196;28;20076;-75
2021/01/04 02:03:08;;;;;;;3.97;3.08;;;;;;;22.21;42.88;94876.72;5009404;28;20022;-75
2021/01/04 02:05:55;;;;;;;4.88;3.33;;;;;;;22.19;42.86;94879.94;4991850;28;20026;-75
2021/01/04 02:08:23;;;;;;;4.97;3.65;;;;;;;22.19;42.92;94885.38;5009559;28;20432;-75
2021/01/04 02:10:52;;;;;;;3.90;3.38;;;;;;;22.15;42.89;94874.03;5007815;28;20018;-75
2021/01/04 02:13:27;;;;;;;4.82;3.10;;;;;;;22.12;42.99;94858.72;5008086;28;20451;-75
2021/01/04 02:15:56;;;;;;;4.25;3.10;;;;;;;22.17;42.83;94871.53;5007645;28;20060;-75
2021/01/04 02:18:40;;;;;;;5.38;3.40;;;;;;;22.16;42.82;94864.63;5014895;28;20470;-75
2021/01/04 02:21:34;;;;;;;4.82;3.40;;;;;;;22.14;42.81;94861.66;5027740;28;20447;-75
2021/01/04 02:24:13;;;;;;;4.95;3.42;;;;;;;22.10;42.80;94850.31;5028752;28;20072;-74
2021/01/04 02:26:43;;;;;;;5.45;3.63;;;;;;;22.13;43.06;94846.59;5027668;28;20029;-75
2021/01/04 02:29:14;;;;;;;4.35;3.15;;;;;;;22.12;42.96;94847.09;5027735;28;20029;-75
2021/01/04 02:31:41;;;;;;;4.15;3.35;;;;;;;22.09;43.13;94837.97;5027207;28;20057;-74
2021/01/04 02:34:09;;;;;;;4.85;3.53;;;;;;;22.11;42.99;94851.81;5027521;28;20548;-75
2021/01/04 02:36:37;;;;;;;5.22;3.25;;;;;;;22.09;42.90;94832.53;5028630;28;20525;-75
2021/01/04 02:39:13;;;;;;;4.95;3.92;;;;;;;22.09;42.95;94824.38;5027342;28;20137;-75
2021/01/04 02:41:40;;;;;;;5.47;3.25;;;;;;;22.05;42.90;94832.06;5027580;28;20029;-75
2021/01/04 02:44:05;;;;;;;4.50;3.45;;;;;;;22.07;42.86;94835.00;5024197;28;20112;-76
2021/01/04 02:46:31;;;;;;;4.97;3.47;;;;;;;22.08;42.83;94825.63;5007206;28;20030;-75
2021/01/04 02:49:04;;;;;;;6.25;4.13;;;;;;;22.04;43.01;94819.69;4991628;28;20026;-74
2021/01/04 02:51:32;;;;;;;4.82;3.65;;;;;;;22.03;42.93;94818.25;4995912;28;20064;-74
2021/01/04 02:54:00;;;;;;;4.82;3.15;;;;;;;21.83;42.85;94782.53;4995507;28;20022;-75
2021/01/04 02:56:44;;;;;;;5.75;3.88;;;;;;;22.03;43.30;94823.69;5011648;28;20752;-75
2021/01/04 02:59:41;;;;;;;5.13;3.78;;;;;;;22.04;42.98;94830.56;4995517;28;20038;-75
2021/01/04 03:02:14;;;;;;;5.22;3.90;;;;;;;22.05;42.93;94837.50;5012587;28;20503;-75
2021/01/04 03:04:39;;;;;;;4.03;3.38;;;;;;;22.00;42.86;94823.94;5010904;28;20056;-75
2021/01/04 03:07:14;;;;;;;4.78;3.33;;;;;;;21.99;42.95;94839.53;5002630;28;20026;-75
2021/01/04 03:09:43;;;;;;;5.18;3.85;;;;;;;21.93;42.78;94819.06;5012631;28;20054;-75
2021/01/04 03:12:12;;;;;;;4.88;3.35;;;;;;;22.03;42.91;94844.69;5010989;28;20168;-75
2021/01/04 03:14:45;;;;;;;5.35;3.33;;;;;;;22.01;42.95;94837.03;4994905;28;20029;-75
2021/01/04 03:17:21;;;;;;;4.45;3.67;;;;;;;22.01;43.03;94831.59;5010676;28;20477;-75
2021/01/04 03:19:47;;;;;;;5.43;3.78;;;;;;;21.89;42.96;94823.28;5011164;28;20137;-75
2021/01/04 03:22:14;;;;;;;5.03;3.97;;;;;;;22.01;42.76;94842.47;4994772;28;20050;-75
2021/01/04 03:24:39;;;;;;;4.70;3.55;;;;;;;21.91;43.00;94815.34;5010833;28;20396;-75
2021/01/04 03:27:11;;;;;;;4.65;3.50;;;;;;;21.83;42.83;94803.56;5012216;28;20033;-74
2021/01/04 03:29:37;;;;;;;4.60;3.38;;;;;;;21.99;42.93;94820.47;4995106;28;20418;-75
2021/01/04 03:32:03;;;;;;;4.88;3.35;;;;;;;21.98;42.87;94813.56;5011749;28;20033;-75
2021/01/04 03:34:28;;;;;;;4.60;3.53;;;;;;;21.98;42.78;94804.69;5012177;28;20033;-75
2021/01/04 03:36:54;;;;;;;5.10;3.60;;;;;;;21.95;42.75;94783.94;5011948;28;20069;-74
2021/01/04 03:39:19;;;;;;;4.80;3.47;;;;;;;21.93;42.87;94768.13;5011845;28;20037;-74
2021/01/04 03:41:47;;;;;;;5.10;3.60;;;;;;;21.96;42.98;94780.72;5028400;28;20033;-74
2021/01/04 03:44:12;;;;;;;4.68;3.38;;;;;;;21.96;42.93;94779.97;5031873;28;20037;-75
2021/01/04 03:46:44;;;;;;;5.00;3.80;;;;;;;21.90;42.92;94770.38;5030234;28;20021;-75
2021/01/04 03:49:09;;;;;;;4.93;3.20;;;;;;;21.91;42.72;94777.28;5031354;28;20040;-75
2021/01/04 03:51:34;;;;;;;3.95;3.30;;;;;;;21.90;42.88;94775.81;5031283;28;20029;-75
2021/01/04 03:54:00;;;;;;;5.60;4.15;;;;;;;21.98;42.92;94788.38;5031660;28;20033;-75
2021/01/04 03:56:26;;;;;;;5.45;3.70;;;;;;;22.07;42.96;94780.63;5031370;28;20079;-75
2021/01/04 03:58:51;;;;;;;5.05;3.50;;;;;;;22.12;42.94;94774.41;5031205;28;20399;-75
2021/01/04 04:01:16;;;;;;;4.97;3.67;;;;;;;22.09;42.89;94756.41;5029056;28;20037;-75
2021/01/04 04:03:43;;;;;;;4.53;3.35;;;;;;;22.11;42.43;94753.91;5031163;28;20025;-75
2021/01/04 04:06:11;;;;;;;4.90;3.17;;;;;;;22.24;42.94;94764.19;5029707;28;20597;-75
2021/01/04 04:08:41;;;;;;;5.32;3.60;;;;;;;22.29;42.62;94768.88;5031481;28;20156;-75
2021/01/04 04:11:07;;;;;;;;;;;;;;;22.33;42.48;94759.19;5031759;28;20040;-75
2021/01/04 04:13:32;;;;;;;5.03;3.58;;;;;;;22.35;42.62;94753.97;5031116;28;19909;-75
2021/01/04 04:15:58;;;;;;;4.00;3.15;;;;;;;22.38;42.52;94747.50;5031231;28;20068;-75
2021/01/04 04:18:24;;;;;;;4.55;3.50;;;;;;;22.21;42.30;94708.09;5030735;28;20029;-75
2021/01/04 04:20:49;;;;;;;5.25;3.35;;;;;;;22.38;42.31;94728.47;5030931;28;20029;-75
2021/01/04 04:23:15;;;;;;;4.40;3.28;;;;;;;22.41;42.68;94715.84;5031344;28;20098;-75
2021/01/04 04:25:40;;;;;;;4.07;3.13;;;;;;;22.35;42.20;94702.28;5030821;28;20476;-75
2021/01/04 04:28:06;;;;;;;4.07;2.97;;;;;;;22.52;42.33;94727.34;5031330;28;20041;-75
2021/01/04 04:30:31;;;;;;;4.13;3.10;;;;;;;22.34;42.05;94711.69;5031025;28;20025;-75
2021/01/04 04:32:57;;;;;;;4.55;3.20;;;;;;;22.57;42.00;94745.59;5031057;28;20036;-75
2021/01/04 04:35:23;;;;;;;4.28;3.28;;;;;;;22.57;42.34;94735.47;5029261;28;20026;-75
2021/01/04 04:37:49;;;;;;;4.25;3.25;;;;;;;22.58;42.06;94741.63;5030443;28;20429;-75
2021/01/04 04:40:20;;;;;;;4.68;3.38;;;;;;;22.55;41.98;94731.75;5031326;28;20036;-75
2021/01/04 04:42:46;;;;;;;4.00;3.20;;;;;;;22.57;42.40;94729.25;5031085;28;20037;-75
2021/01/04 04:45:15;;;;;;;4.97;3.20;;;;;;;22.61;42.34;94724.28;5030750;28;20026;-75
2021/01/04 04:48:01;;;;;;;4.07;3.40;;;;;;;22.64;42.30;94721.25;5012965;28;20032;-75
2021/01/04 04:50:51;;;;;;;4.15;3.20;;;;;;;22.65;42.11;94719.28;5030743;28;20467;-75
2021/01/04 04:53:38;;;;;;;5.40;3.50;;;;;;;22.68;42.23;94712.81;5029456;28;20021;-75
2021/01/04 04:56:27;;;;;;;4.90;3.25;;;;;;;22.63;42.00;94713.59;5030420;28;20029;-75
2021/01/04 04:59:02;;;;;;;4.45;3.25;;;;;;;22.70;42.02;94721.22;5024191;28;20180;-75
2021/01/04 05:01:32;;;;;;;4.68;3.55;;;;;;;22.41;42.05;94673.78;5011073;28;20121;-75
2021/01/04 05:04:17;;;;;;;4.53;3.40;;;;;;;22.72;41.98;94707.81;5009678;28;20037;-75
2021/01/04 05:06:52;;;;;;;4.07;3.35;;;;;;;22.55;42.05;94682.78;5009299;28;20492;-75
2021/01/04 05:09:39;;;;;;;3.88;3.13;;;;;;;22.76;41.76;94713.72;4994206;28;20037;-75
2021/01/04 05:12:10;;;;;;;4.45;3.20;;;;;;;22.76;41.83;94721.88;5010912;28;20052;-75
2021/01/04 05:14:39;;;;;;;3.75;3.00;;;;;;;22.73;42.11;94709.31;5010082;28;20083;-75
2021/01/04 05:17:28;;;;;;;3.78;3.28;;;;;;;22.78;41.79;94705.78;5009523;28;20522;-75
2021/01/04 05:20:08;;;;;;;4.90;3.30;;;;;;;22.61;41.97;94686.91;5009953;28;20034;-75
2021/01/04 05:22:59;;;;;;;4.65;3.20;;;;;;;22.84;41.94;94709.16;5025680;28;20033;-73
2021/01/04 05:25:33;;;;;;;4.32;3.15;;;;;;;22.85;41.59;94697.75;5029025;28;20024;-71
2021/01/04 05:28:26;;;;;;;4.15;3.30;;;;;;;22.88;41.61;94687.84;5028315;28;20071;-73
2021/01/04 05:31:11;;;;;;;4.63;3.28;;;;;;;22.90;41.66;94680.66;5009909;28;20025;-75
2021/01/04 05:33:58;;;;;;;4.40;3.13;;;;;;;22.94;41.79;94670.97;5023806;28;20069;-74
2021/01/04 05:36:54;;;;;;;4.78;3.38;;;;;;;22.99;41.63;94667.44;5010181;28;20025;-74
2021/01/04 05:39:20;;;;;;;4.20;2.90;;;;;;;23.05;41.59;94670.81;5022254;28;20083;-73
2021/01/04 05:42:04;;;;;;;3.45;2.88;;;;;;;23.12;41.34;94670.22;5019178;28;20128;-74
2021/01/04 05:44:53;;;;;;;5.38;3.30;;;;;;;23.19;41.12;94664.19;5017888;28;20108;-74
2021/01/04 05:47:26;;;;;;;4.45;3.13;;;;;;;23.29;40.92;94651.66;5005656;28;20812;-74
2021/01/04 05:50:05;;;;;;;4.47;3.28;;;;;;;23.39;40.94;94655.47;5016847;28;20499;-73
2021/01/04 05:52:30;;;;;;;4.85;3.13;;;;;;;23.50;40.83;94649.88;5026826;28;20032;-74
2021/01/04 05:54:56;;;;;;;4.50;3.40;;;;;;;23.60;40.39;94653.66;5018039;28;20030;-74
2021/01/04 05:57:21;;;;;;;4.00;3.17;;;;;;;23.67;40.43;94653.81;5022465;28;20030;-74
2021/01/04 05:59:57;;;;;;;4.82;3.60;;;;;;;23.78;40.37;94653.66;5026437;28;20226;-74
2021/01/04 06:02:25;;;;;;;5.05;3.67;;;;;;;23.90;39.79;94652.97;5024338;28;20029;-74
2021/01/04 06:04:51;;;;;;;4.38;3.45;;;;;;;24.00;39.71;94645.09;5026133;28;20555;-73
2021/01/04 06:07:16;;;;;;;4.40;3.45;;;;;;;24.10;39.75;94640.72;5014433;28;20029;-75
2021/01/04 06:09:42;;;;;;;4.65;3.40;;;;;;;24.13;39.12;94651.31;5018099;28;20411;-73
2021/01/04 06:12:16;;;;;;;4.15;3.50;;;;;;;24.26;39.26;94658.78;5020758;28;20430;-72
2021/01/04 06:14:42;;;;;;;5.40;3.83;;;;;;;24.25;39.52;94636.22;5027676;28;20502;-74
2021/01/04 06:17:37;;;;;;;4.20;3.42;;;;;;;24.46;38.72;94659.66;5014155;28;20082;-73
2021/01/04 06:20:15;;;;;;;5.75;3.53;;;;;;;24.58;38.52;94649.28;5011698;28;20784;-70
2021/01/04 06:22:41;;;;;;;3.95;3.42;;;;;;;24.64;38.77;94649.91;5022013;28;20143;-71
2021/01/04 06:25:07;;;;;;;5.60;3.38;;;;;;;24.75;38.54;94655.13;5018222;28;20128;-70
2021/01/04 06:27:41;;;;;;;4.80;3.35;;;;;;;24.80;38.78;94646.09;5014479;28;20510;-70
2021/01/04 06:30:36;;;;;;;5.35;3.45;;;;;;;24.87;38.05;94636.00;5014164;28;20041;-70
2021/01/04 06:33:08;;;;;;;4.25;3.35;;;;;;;24.87;38.18;94630.56;5016062;28;20120;-73
2021/01/04 06:35:33;;;;;;;4.80;3.97;;;;;;;25.05;37.99;94637.91;5016477;28;20109;-74
2021/01/04 06:38:24;;;;;;;3.97;3.03;;;;;;;25.14;37.77;94626.53;5039542;28;20510;-75
2021/01/04 06:40:50;;;;;;;4.00;3.08;;;;;;;25.17;37.89;94630.94;5010348;28;20037;-74
2021/01/04 06:43:33;;;;;;;4.13;3.13;;;;;;;25.11;37.69;94619.38;5017775;28;20528;-77
2021/01/04 06:46:20;;;;;;;4.80;3.35;;;;;;;25.26;37.80;94630.50;5024186;28;20506;-70
2021/01/04 06:49:13;;;;;;;4.90;3.53;;;;;;;25.31;37.71;94618.69;5018844;28;20487;-71
2021/01/04 06:52:09;;;;;;;4.45;3.20;;;;;;;25.33;37.83;94621.63;5014996;28;20453;-70
2021/01/04 06:54:56;;;;;;;4.82;3.50;;;;;;;25.37;37.64;94611.09;5014609;28;20045;-73
2021/01/04 06:57:24;;;;;;;4.30;3.10;;;;;;;25.43;37.32;94614.44;5013491;28;20052;-71
2021/01/04 06:59:49;;;;;;;4.85;3.38;;;;;;;25.49;37.39;94612.31;5016981;28;20044;-76
2021/01/04 07:02:33;;;;;;;4.45;3.50;;;;;;;25.53;37.40;94612.69;5014891;28;20025;-71
2021/01/04 07:05:20;;;;;;;4.72;3.30;;;;;;;25.55;37.34;94615.66;5004147;28;20025;-71
2021/01/04 07:08:01;;;;;;;4.00;3.20;;;;;;;25.62;37.12;94614.97;5024166;28;20109;-72
2021/01/04 07:10:32;;;;;;;4.50;3.30;;;;;;;25.65;37.45;94619.41;5016970;28;20033;-73
2021/01/04 07:13:18;;;;;;;4.15;3.33;;;;;;;25.67;37.22;94611.41;5013546;28;20053;-76
2021/01/04 07:16:03;;;;;;;3.42;3.03;;;;;;;25.73;37.04;94599.06;5024758;28;20136;-72
2021/01/04 07:18:57;;;;;;;4.00;3.20;;;;;;;25.80;36.91;94593.66;5026331;28;20461;-71
2021/01/04 07:21:46;;;;;;;4.25;3.30;;;;;;;25.80;36.88;94588.19;5019454;28;20577;-75
2021/01/04 07:24:32;;;;;;;4.33;3.10;;;;;;;25.83;36.93;94581.63;5026217;28;20051;-72
2021/01/04 07:27:35;;;;;;;4.35;3.47;;;;;;;25.85;36.86;94576.34;5021808;28;20117;-72
2021/01/04 07:30:12;;;;;;;4.68;3.30;;;;;;;25.89;36.88;94579.50;5011429;28;20109;-73
2021/01/04 07:32:59;;;;;;;4.93;3.88;;;;;;;25.79;36.79;94549.69;5019435;28;20045;-73
2021/01/04 07:35:30;;;;;;;4.03;3.20;;;;;;;25.98;37.08;94575.56;4993361;28;20048;-73
2021/01/04 07:37:59;;;;;;;4.05;3.38;;;;;;;26.01;36.82;94580.69;5021190;28;20087;-72
2021/01/04 07:40:40;;;;;;;4.57;3.22;;;;;;;26.03;37.03;94572.66;5014575;28;20033;-72
2021/01/04 07:43:24;;;;;;;3.90;3.20;;;;;;;26.09;37.35;94567.78;5024945;28;20356;-71
2021/01/04 07:45:55;;;;;;;4.10;3.30;;;;;;;26.10;37.11;94561.03;5012877;28;20114;-74
2021/01/04 07:48:39;;;;;;;5.15;3.25;;;;;;;26.15;37.36;94557.41;5013522;28;20634;-72
2021/01/04 07:51:41;;;;;;;4.22;3.13;;;;;;;26.14;37.26;94550.47;5011534;28;20021;-72
2021/01/04 07:54:13;;;;;;;5.15;3.33;;;;;;;26.16;37.76;94537.00;5017095;28;20033;-71
2021/01/04 07:56:44;;;;;;;4.30;3.22;;;;;;;26.20;37.86;94542.84;5017128;28;20509;-70
2021/01/04 07:59:47;;;;;;;4.63;3.50;;;;;;;26.26;37.57;94543.41;5021420;28;20029;-71
2021/01/04 08:02:50;;;;;;;4.63;3.53;;;;;;;26.36;37.37;94536.22;5020888;28;20031;-70
2021/01/04 08:05:29;;;;;;;4.68;3.20;;;;;;;26.37;37.33;94515.78;5015101;28;20033;-70
2021/01/04 08:08:31;;;;;;;4.30;3.00;;;;;;;26.41;37.08;94513.41;5029776;28;20029;-70
2021/01/04 08:11:17;;;;;;;4.20;3.30;;;;;;;26.42;36.76;94514.88;5030552;28;20025;-70
2021/01/04 08:14:10;;;;;;;4.80;3.20;;;;;;;26.43;36.35;94522.56;5024362;28;20629;-71
2021/01/04 08:16:58;;;;;;;4.40;3.30;;;;;;;26.50;36.49;94526.59;5012071;28;20060;-70
2021/01/04 08:19:24;;;;;;;4.03;3.17;;;;;;;26.51;36.31;94523.31;5014297;28;20042;-70
2021/01/04 08:21:59;;;;;;;4.18;2.90;;;;;;;26.55;36.42;94515.50;5027307;28;20029;-70
2021/01/04 08:24:34;;;;;;;4.10;3.20;;;;;;;26.59;36.04;94509.66;5024286;28;20079;-70
2021/01/04 08:27:41;;;;;;;4.00;3.08;;;;;;;26.56;36.22;94486.09;5017649;28;20033;-70
2021/01/04 08:30:10;;;;;;;3.65;3.03;;;;;;;26.61;36.21;94498.91;5003719;28;20037;-73
2021/01/04 08:32:44;;;;;;;4.03;3.13;;;;;;;26.59;35.91;94490.47;5021793;28;20030;-73
2021/01/04 08:35:34;;;;;;;4.20;3.33;;;;;;;26.51;36.29;94495.94;5028939;28;20025;-73
2021/01/04 08:38:12;;;;;;;4.38;3.30;;;;;;;26.41;36.47;94486.03;5003092;28;20052;-73
2021/01/04 08:40:39;;;;;;;4.35;3.08;;;;;;;26.41;36.51;94486.03;5018440;28;20033;-74
2021/01/04 08:43:09;;;;;;;4.22;3.10;;;;;;;26.53;36.83;94476.22;4999926;28;20053;-74
2021/01/04 08:45:45;;;;;;;5.00;3.40;;;;;;;26.55;37.16;94485.34;5028577;28;20017;-74
2021/01/04 08:48:18;;;;;;;4.75;3.40;;;;;;;26.51;37.49;94467.81;5028487;28;20387;-74
2021/01/04 08:50:46;;;;;;;3.67;3.08;;;;;;;26.38;37.10;94438.56;5029285;28;20460;-75
2021/01/04 08:53:20;;;;;;;6.18;3.35;;;;;;;26.58;37.42;94456.16;5027710;28;20132;-74
2021/01/04 08:55:45;;;;;;;3.65;3.00;;;;;;;26.56;37.91;94447.75;5016214;28;20108;-72
2021/01/04 08:58:19;;;;;;;4.47;3.20;;;;;;;26.58;37.63;94440.44;5028119;28;20017;-72
2021/01/04 09:00:45;;;;;;;10.43;3.67;;;;;;;26.58;37.77;94440.44;5016536;28;20033;-72
2021/01/04 09:03:19;;;;;;;10.30;3.53;;;;;;;26.42;37.64;94410.81;5011727;28;20395;-72
2021/01/04 09:05:45;;;;;;;6.57;3.17;;;;;;;26.62;37.28;94429.13;5040902;28;20572;-74
2021/01/04 09:08:11;;;;;;;7.35;3.53;;;;;;;26.61;37.42;94433.16;5009201;28;20018;-71
2021/01/04 09:10:38;;;;;;;7.15;3.58;;;;;;;26.63;37.29;94442.28;5013322;28;20156;-72
2021/01/04 09:13:36;;;;;;;10.63;3.53;;;;;;;26.64;37.08;94438.28;5030703;28;20033;-72
2021/01/04 09:16:26;;;;;;;9.88;3.38;;;;;;;26.64;37.05;94432.06;5020706;28;20403;-74
2021/01/04 09:18:54;;;;;;;9.70;3.45;;;;;;;26.62;36.69;94426.38;5020180;28;20109;-75
2021/01/04 09:21:23;;;;;;;9.68;3.60;;;;;;;26.66;36.97;94424.03;5009629;28;20048;-71
2021/01/04 09:23:48;;;;;;;9.60;3.90;;;;;;;26.65;36.86;94417.09;5022272;28;20197;-71
2021/01/04 09:26:23;;;;;;;12.30;4.35;;;;;;;26.49;37.40;94410.13;5017080;28;20029;-75
2021/01/04 09:29:00;;;;;;;10.98;3.20;;;;;;;26.64;36.79;94416.34;5012675;28;20483;-72
2021/01/04 09:31:26;;;;;;;11.38;3.75;;;;;;;26.66;36.80;94407.59;5030151;28;20033;-72
2021/01/04 09:33:51;;;;;;;10.55;4.30;;;;;;;26.67;36.79;94409.78;5012677;28;20025;-72
2021/01/04 09:36:21;;;;;;;9.50;3.60;;;;;;;26.49;36.83;94377.25;5013013;28;20072;-72
2021/01/04 09:38:47;;;;;;;;;;;;;;;26.73;36.63;94401.41;5027952;28;20117;-73
2021/01/04 09:41:13;;;;;;;10.02;3.50;;;;;;;26.57;36.73;94386.22;5019252;28;19991;-72
2021/01/04 09:43:39;;;;;;;12.63;4.38;;;;;;;26.66;37.21;94402.13;5015203;28;20029;-72
2021/01/04 09:46:21;;;;;;;9.95;4.22;;;;;;;26.64;36.76;94407.41;5011799;28;20172;-72
2021/01/04 09:48:48;;;;;;;11.20;3.95;;;;;;;26.66;36.62;94408.31;5008984;28;20022;-83
2021/01/04 09:51:16;;;;;;;9.25;3.67;;;;;;;26.52;36.83;94395.34;5027549;28;20091;-71
2021/01/04 09:53:42;;;;;;;11.75;3.88;;;;;;;26.68;36.93;94411.25;5004681;28;20022;-73
2021/01/04 09:56:12;;;;;;;10.95;4.00;;;;;;;26.68;36.77;94405.03;5008636;28;20033;-76
2021/01/04 09:58:37;;;;;;;;;;;;;;;26.71;36.70;94409.44;5020645;28;20559;-75
2021/01/04 10:01:13;;;;;;;9.70;4.30;;;;;;;26.69;36.60;94401.75;5022733;28;19917;-72
2021/01/04 10:03:39;;;;;;;11.00;3.72;;;;;;;26.57;36.46;94383.47;5015292;28;20034;-72
2021/01/04 10:06:08;;;;;;;9.05;3.85;;;;;;;26.63;36.51;94381.28;5022929;28;20036;-72
2021/01/04 10:08:34;;;;;;;10.77;3.63;;;;;;;26.66;36.49;94389.16;4951822;28;20045;-74
2021/01/04 10:11:04;;;;;;;17.42;4.45;;;;;;;26.54;36.66;94368.13;5026347;28;20052;-73
2021/01/04 10:13:31;;;;;;;9.48;4.25;;;;;;;26.67;36.90;94395.38;5009361;28;20422;-73
2021/01/04 10:15:57;;;;;;;11.70;3.67;;;;;;;26.69;36.59;94384.59;5009485;28;20045;-73
2021/01/04 10:19:03;;;;;;;23.83;4.68;;;;;;;26.46;37.27;94350.97;5024072;28;20037;-70
2021/01/04 10:21:32;;;;;;;15.13;4.25;;;;;;;26.68;37.12;94372.91;5031154;28;20056;-71
2021/01/04 10:24:03;;;;;;;12.00;4.25;;;;;;;26.65;37.07;94356.81;5010424;28;20031;-71
2021/01/04 10:26:35;;;;;;;11.55;3.92;;;;;;;26.67;37.01;94359.75;5024199;28;20109;-72
2021/01/04 10:29:03;;;;;;;12.52;4.53;;;;;;;26.66;37.19;94358.28;5024480;28;20511;-72
2021/01/04 10:31:29;;;;;;;11.35;4.07;;;;;;;26.65;37.46;94356.81;5008000;28;20438;-71
2021/01/04 10:34:08;;;;;;;13.00;4.65;;;;;;;26.65;37.14;94345.88;5024777;28;20025;-72
2021/01/04 10:36:34;;;;;;;11.75;4.20;;;;;;;26.64;37.37;94338.94;5022395;28;20108;-72
2021/01/04 10:39:21;;;;;;;13.23;4.13;;;;;;;26.64;37.36;94344.41;5010572;28;20112;-71
2021/01/04 10:41:47;;;;;;;12.93;4.45;;;;;;;26.54;37.44;94329.78;5023472;28;20056;-71
2021/01/04 10:44:14;;;;;;;11.25;4.18;;;;;;;26.68;37.28;94336.56;5015789;28;20018;-75
2021/01/04 10:46:43;;;;;;;10.52;3.97;;;;;;;26.63;37.57;94332.00;5020702;28;20032;-74
2021/01/04 10:49:29;;;;;;;10.27;4.13;;;;;;;26.69;37.79;94335.28;5016802;28;20017;-76
2021/01/04 10:51:55;;;;;;;9.63;4.00;;;;;;;26.71;37.75;94329.97;5013681;28;20494;-73
2021/01/04 10:54:23;;;;;;;11.10;3.85;;;;;;;26.56;37.73;94310.78;5011933;28;20044;-72
2021/01/04 10:57:01;;;;;;;8.52;3.60;;;;;;;26.67;37.59;94321.41;5022034;28;20022;-72
2021/01/04 10:59:32;;;;;;;9.02;3.97;;;;;;;26.69;37.66;94305.16;5016865;28;20055;-74
2021/01/04 11:01:58;;;;;;;10.77;4.50;;;;;;;26.59;37.17;94282.31;5024883;28;20029;-70
2021/01/04 11:04:23;;;;;;;10.45;3.70;;;;;;;26.74;37.57;94298.75;5042552;28;20128;-71
2021/01/04 11:07:08;;;;;;;9.85;3.85;;;;;;;26.78;37.47;94286.88;5026448;28;20818;-70
2021/01/04 11:09:37;;;;;;;9.52;3.75;;;;;;;26.75;37.27;94278.31;5019814;28;20032;-75
2021/01/04 11:12:09;;;;;;;11.00;4.00;;;;;;;26.76;37.20;94269.53;5018424;28;20029;-78
2021/01/04 11:14:34;;;;;;;9.65;4.13;;;;;;;26.75;37.42;94272.81;5029771;28;20100;-72
2021/01/04 11:17:20;;;;;;;10.13;4.28;;;;;;;26.74;37.10;94260.41;5029992;28;20045;-71
2021/01/04 11:19:46;;;;;;;7.85;3.38;;;;;;;26.75;37.17;94256.38;5014522;28;20041;-68
2021/01/04 11:22:20;;;;;;;10.98;4.32;;;;;;;26.81;37.34;94255.63;5022663;28;20034;-69
2021/01/04 11:24:46;;;;;;;10.70;3.80;;;;;;;26.65;37.55;94225.34;5028078;28;20025;-71
2021/01/04 11:27:12;;;;;;;9.48;3.85;;;;;;;26.66;37.52;94226.81;5027294;28;20567;-73
2021/01/04 11:29:38;;;;;;;9.88;4.43;;;;;;;26.82;37.70;94243.41;5035928;28;20033;-76
2021/01/04 11:32:04;;;;;;;11.55;3.85;;;;;;;26.71;38.11;94223.16;5027691;28;20025;-72
2021/01/04 11:34:32;;;;;;;7.80;3.70;;;;;;;26.81;37.91;94233.72;5024649;28;20494;-74
2021/01/04 11:36:58;;;;;;;10.40;4.10;;;;;;;26.76;38.19;94229.16;5017795;28;20510;-71
2021/01/04 11:39:27;;;;;;;8.93;3.72;;;;;;;26.80;38.37;94223.31;5028318;28;20032;-71
2021/01/04 11:41:52;;;;;;;7.65;3.40;;;;;;;26.66;37.80;94205.63;5044922;28;20018;-80
2021/01/04 11:44:18;;;;;;;7.95;3.75;;;;;;;26.80;37.94;94215.84;5029738;28;20090;-78
2021/01/04 11:46:44;;;;;;;7.55;3.80;;;;;;;26.83;38.14;94213.97;5024484;28;20022;-79
2021/01/04 11:49:09;;;;;;;9.98;4.18;;;;;;;26.79;37.66;94192.44;5027263;28;20025;-73
2021/01/04 11:51:35;;;;;;;9.80;3.72;;;;;;;26.84;37.84;94188.78;5020452;28;20025;-74
2021/01/04 11:54:01;;;;;;;10.32;3.53;;;;;;;26.82;37.78;94174.91;5025511;28;20017;-73
2021/01/04 11:56:28;;;;;;;8.57;3.42;;;;;;;26.74;38.17;94167.25;5020585;28;20022;-72
2021/01/04 11:58:54;;;;;;;7.10;3.58;;;;;;;26.76;37.97;94153.75;5028834;28;20029;-74
2021/01/04 12:01:20;;;;;;;6.88;3.72;;;;;;;26.70;38.19;94151.19;5010816;28;20426;-74
2021/01/04 12:03:45;;;;;;;6.93;3.47;;;;;;;26.66;38.05;94145.34;5022698;28;20091;-73
2021/01/04 12:06:11;;;;;;;7.75;3.25;;;;;;;26.61;37.95;94142.84;5017210;28;20033;-74
2021/01/04 12:08:37;;;;;;;7.53;3.83;;;;;;;26.54;38.06;94143.56;5021691;28;20061;-74